createdAt,value
2019-06-01T00:01:07.712Z,90.60
2019-06-01T00:05:16.950Z,90.70
2019-06-01T00:09:26.129Z,90.60
2019-06-01T00:13:35.220Z,90.70
2019-06-01T00:17:44.072Z,90.60
2019-06-01T00:21:54.244Z,90.60
2019-06-01T00:26:03.225Z,90.60
2019-06-01T00:30:26.202Z,90.40
2019-06-01T00:34:22.940Z,90.80
2019-06-01T00:38:31.775Z,91.10
2019-06-01T00:42:41.963Z,91.20
2019-06-01T00:46:51.166Z,91.20
2019-06-01T00:51:00.133Z,91.30
2019-06-01T00:55:09.264Z,91.70
2019-06-01T00:59:18.120Z,91.70
2019-06-01T01:03:27.039Z,91.70
2019-06-01T01:07:38.208Z,91.80
2019-06-01T01:11:46.984Z,91.80
2019-06-01T01:15:56.123Z,91.70
2019-06-01T01:20:05.177Z,91.50
2019-06-01T01:29:22.842Z,91.20
2019-06-01T01:33:31.783Z,91.30
2019-06-01T01:37:40.767Z,91.30
2019-06-01T01:41:50.030Z,91.50
2019-06-01T01:45:59.065Z,91.50
2019-06-01T01:50:10.084Z,91.70
2019-06-01T01:54:18.892Z,91.90
2019-06-01T01:58:27.711Z,92.10
2019-06-01T02:02:36.601Z,92.00
2019-06-01T02:06:45.761Z,91.90
2019-06-01T02:10:55.425Z,91.70
2019-06-01T02:15:05.303Z,91.50
2019-06-01T02:19:14.111Z,91.40
2019-06-01T02:23:23.359Z,91.80
2019-06-01T02:27:32.245Z,91.70
2019-06-01T02:31:42.847Z,91.70
2019-06-01T02:35:51.689Z,91.70
2019-06-01T02:40:00.948Z,91.50
2019-06-01T02:44:09.925Z,91.70
2019-06-01T02:48:18.831Z,91.60
2019-06-01T02:52:27.647Z,92.20
2019-06-01T02:56:36.596Z,92.30
2019-06-01T03:01:20.555Z,92.20
2019-06-01T03:05:29.604Z,92.40
2019-06-01T03:09:40.743Z,92.30
2019-06-01T03:13:52.632Z,92.40
2019-06-01T03:18:03.847Z,92.70
2019-06-01T03:22:15.148Z,92.80
2019-06-01T03:26:25.795Z,92.90
2019-06-01T03:30:45.535Z,92.80
2019-06-01T03:34:53.299Z,92.60
2019-06-01T03:39:03.984Z,92.70
2019-06-01T03:43:13.477Z,92.60
2019-06-01T03:47:22.453Z,92.40
2019-06-01T03:51:31.347Z,92.30
2019-06-01T03:55:40.420Z,92.10
2019-06-01T03:59:49.230Z,91.80
2019-06-01T04:03:58.112Z,91.80
2019-06-01T04:08:07.515Z,91.40
2019-06-01T04:12:16.539Z,91.00
2019-06-01T04:16:25.492Z,89.40
2019-06-01T04:20:34.316Z,87.90
2019-06-01T04:24:43.196Z,85.90
2019-06-01T04:28:52.024Z,84.20
2019-06-01T04:33:00.846Z,83.90
2019-06-01T04:37:11.214Z,83.90
2019-06-01T04:41:20.236Z,83.70
2019-06-01T04:45:29.115Z,83.70
2019-06-01T04:49:37.935Z,83.50
2019-06-01T04:53:46.836Z,82.20
2019-06-01T04:57:55.713Z,80.90
2019-06-01T05:02:05.630Z,79.40
2019-06-01T05:06:15.449Z,77.80
2019-06-01T05:10:24.418Z,76.30
2019-06-01T05:14:33.392Z,73.80
2019-06-01T05:18:42.387Z,71.70
2019-06-01T05:22:51.268Z,72.70
2019-06-01T05:27:00.171Z,74.10
2019-06-01T05:31:13.316Z,75.70
2019-06-01T05:35:20.059Z,76.60
2019-06-01T05:39:29.088Z,77.40
2019-06-01T05:43:38.085Z,78.10
2019-06-01T05:47:46.995Z,78.40
2019-06-01T05:51:55.893Z,78.20
2019-06-01T05:56:04.790Z,77.50
2019-06-01T06:00:15.054Z,77.10
2019-06-01T06:04:24.314Z,77.70
2019-06-01T06:08:33.214Z,76.60
2019-06-01T06:12:42.164Z,76.60
2019-06-01T06:16:51.120Z,76.60
2019-06-01T06:20:59.931Z,76.10
2019-06-01T06:25:08.893Z,75.60
2019-06-01T06:29:18.838Z,74.50
2019-06-01T06:33:28.375Z,73.80
2019-06-01T06:37:37.254Z,73.30
2019-06-01T06:41:46.231Z,72.40
2019-06-01T06:45:55.254Z,71.70
2019-06-01T06:50:04.516Z,70.80
2019-06-01T06:54:14.965Z,69.70
2019-06-01T06:58:26.389Z,68.80
2019-06-01T07:02:35.403Z,68.20
2019-06-01T07:06:44.323Z,67.90
2019-06-01T07:10:53.618Z,67.50
2019-06-01T07:15:02.439Z,66.90
2019-06-01T07:19:11.267Z,66.30
2019-06-01T07:23:20.208Z,64.30
2019-06-01T07:27:29.329Z,60.90
2019-06-01T07:31:38.299Z,59.80
2019-06-01T07:35:47.125Z,59.30
2019-06-01T07:39:56.023Z,58.60
2019-06-01T07:44:05.242Z,58.30
2019-06-01T07:48:14.343Z,57.70
2019-06-01T07:52:24.215Z,57.00
2019-06-01T07:56:33.178Z,56.60
2019-06-01T08:00:42.260Z,55.70
2019-06-01T08:04:54.423Z,55.40
2019-06-01T08:09:01.945Z,54.80
2019-06-01T08:13:10.767Z,54.20
2019-06-01T08:17:19.600Z,53.70
2019-06-01T08:21:28.611Z,53.60
2019-06-01T08:25:37.527Z,54.20
2019-06-01T08:29:46.462Z,53.30
2019-06-01T08:33:55.512Z,53.20
2019-06-01T08:38:04.392Z,52.80
2019-06-01T08:42:13.311Z,52.70
2019-06-01T08:46:23.565Z,52.30
2019-06-01T08:50:33.967Z,52.30
2019-06-01T08:54:42.977Z,52.90
2019-06-01T08:58:51.798Z,52.60
2019-06-01T09:03:00.657Z,51.80
2019-06-01T09:07:09.910Z,49.80
2019-06-01T09:11:19.124Z,50.20
2019-06-01T09:15:29.719Z,49.50
2019-06-01T09:19:39.043Z,50.40
2019-06-01T09:23:48.250Z,49.60
2019-06-01T09:27:57.462Z,49.30
2019-06-01T09:32:10.647Z,49.50
2019-06-01T09:36:17.534Z,48.70
2019-06-01T09:40:28.228Z,48.60
2019-06-01T09:44:38.171Z,46.80
2019-06-01T09:48:47.307Z,47.20
2019-06-01T09:52:56.558Z,47.40
2019-06-01T09:57:06.112Z,46.90
2019-06-01T10:01:15.371Z,45.50
2019-06-01T10:05:24.620Z,44.70
2019-06-01T10:09:33.683Z,45.20
2019-06-01T10:13:42.811Z,44.70
2019-06-01T10:17:51.678Z,43.80
2019-06-01T10:22:00.532Z,43.10
2019-06-01T10:26:09.395Z,42.00
2019-06-01T10:30:18.629Z,42.30
2019-06-01T10:34:27.623Z,42.80
2019-06-01T10:38:37.407Z,43.10
2019-06-01T10:42:46.392Z,42.60
2019-06-01T10:46:56.050Z,43.10
2019-06-01T10:51:05.311Z,43.30
2019-06-01T10:55:15.139Z,42.60
2019-06-01T10:59:24.371Z,41.90
2019-06-01T11:03:34.628Z,42.60
2019-06-01T11:07:43.896Z,43.00
2019-06-01T11:11:53.015Z,42.20
2019-06-01T11:16:02.400Z,40.50
2019-06-01T11:20:12.102Z,40.30
2019-06-01T11:24:21.492Z,40.50
2019-06-01T11:28:30.990Z,41.00
2019-06-01T11:32:41.901Z,40.80
2019-06-01T11:37:04.458Z,40.20
2019-06-01T11:41:01.891Z,40.20
2019-06-01T11:45:11.467Z,40.20
2019-06-01T11:49:21.483Z,38.70
2019-06-01T11:53:30.559Z,38.70
2019-06-01T11:57:39.617Z,38.10
2019-06-01T12:01:48.498Z,36.40
2019-06-01T12:05:57.311Z,35.70
2019-06-01T12:10:07.861Z,35.00
2019-06-01T12:14:16.856Z,34.30
2019-06-01T12:18:25.816Z,34.50
2019-06-01T12:22:34.804Z,34.00
2019-06-01T12:26:43.593Z,34.20
2019-06-01T12:30:52.547Z,33.70
2019-06-01T12:35:03.393Z,34.00
2019-06-01T12:39:12.145Z,33.50
2019-06-01T12:43:21.390Z,34.10
2019-06-01T12:47:30.311Z,33.50
2019-06-01T12:51:40.575Z,32.90
2019-06-01T12:55:49.627Z,33.90
2019-06-01T12:59:58.596Z,33.40
2019-06-01T13:04:07.660Z,33.00
2019-06-01T13:08:17.552Z,32.90
2019-06-01T13:12:26.403Z,32.40
2019-06-01T13:16:35.397Z,32.90
2019-06-01T13:20:45.386Z,31.90
2019-06-01T13:24:54.867Z,33.00
2019-06-01T13:29:04.209Z,32.50
2019-06-01T13:33:14.998Z,33.30
2019-06-01T13:37:23.973Z,33.40
2019-06-01T13:41:32.945Z,32.20
2019-06-01T13:45:43.064Z,31.50
2019-06-01T13:49:52.129Z,31.20
2019-06-01T13:54:01.115Z,31.80
2019-06-01T13:58:10.046Z,33.00
2019-06-01T14:02:18.852Z,30.80
2019-06-01T14:06:27.976Z,31.30
2019-06-01T14:10:36.791Z,31.80
2019-06-01T14:14:45.600Z,32.50
2019-06-01T14:18:55.975Z,31.40
2019-06-01T14:23:05.253Z,32.10
2019-06-01T14:27:14.896Z,31.00
2019-06-01T14:31:23.771Z,31.00
2019-06-01T14:35:35.697Z,31.10
2019-06-01T14:39:43.191Z,30.90
2019-06-01T14:43:52.161Z,30.40
2019-06-01T14:48:01.858Z,30.90
2019-06-01T14:52:10.726Z,30.40
2019-06-01T14:56:19.650Z,30.80
2019-06-01T15:00:29.959Z,31.00
2019-06-01T15:04:38.748Z,31.20
2019-06-01T15:09:08.745Z,30.50
2019-06-01T15:13:02.650Z,30.70
2019-06-01T15:17:09.216Z,31.40
2019-06-01T15:21:18.084Z,31.60
2019-06-01T15:25:26.959Z,30.10
2019-06-01T15:29:36.116Z,30.50
2019-06-01T15:33:44.919Z,31.30
2019-06-01T15:37:58.384Z,31.30
2019-06-01T15:42:04.473Z,31.00
2019-06-01T15:46:13.308Z,30.20
2019-06-01T15:50:22.179Z,30.00
2019-06-01T15:54:31.324Z,30.10
2019-06-01T15:58:52.228Z,30.20
2019-06-01T16:02:50.915Z,30.60
2019-06-01T16:06:59.725Z,30.00
2019-06-01T16:11:08.538Z,29.80
2019-06-01T16:15:17.511Z,34.50
2019-06-01T16:19:26.307Z,38.00
2019-06-01T16:23:49.420Z,39.20
2019-06-01T16:27:45.759Z,40.10
2019-06-01T16:31:54.811Z,40.80
2019-06-01T16:36:04.257Z,41.10
2019-06-01T16:40:15.743Z,41.30
2019-06-01T16:44:24.631Z,41.50
2019-06-01T16:48:33.595Z,41.50
2019-06-01T16:52:42.579Z,41.40
2019-06-01T16:56:51.457Z,42.00
2019-06-01T17:01:00.538Z,41.30
2019-06-01T17:05:09.988Z,40.90
2019-06-01T17:09:19.192Z,39.20
2019-06-01T17:13:28.023Z,37.30
2019-06-01T17:17:36.988Z,34.90
2019-06-01T17:22:05.615Z,34.40
2019-06-01T17:26:14.537Z,33.10
2019-06-01T17:30:23.449Z,32.60
2019-06-01T17:34:32.461Z,31.00
2019-06-01T17:38:41.240Z,31.00
2019-06-01T17:42:49.991Z,30.60
2019-06-01T17:46:59.919Z,30.30
2019-06-01T17:51:08.914Z,30.30
2019-06-01T17:55:43.042Z,30.00
2019-06-01T17:59:51.877Z,30.50
2019-06-01T18:04:01.760Z,30.80
2019-06-01T18:08:10.691Z,31.30
2019-06-01T18:12:19.634Z,31.00
2019-06-01T18:16:28.465Z,30.50
2019-06-01T18:20:37.999Z,30.60
2019-06-01T18:24:46.769Z,30.30
2019-06-01T18:28:55.618Z,31.10
2019-06-01T18:33:05.002Z,31.30
2019-06-01T18:37:13.803Z,32.20
2019-06-01T18:41:22.727Z,36.70
2019-06-01T18:45:32.397Z,40.30
2019-06-01T18:49:41.640Z,43.00
2019-06-01T18:53:50.714Z,45.20
2019-06-01T18:58:01.685Z,47.40
2019-06-01T19:02:10.605Z,49.30
2019-06-01T19:06:19.425Z,51.70
2019-06-01T19:10:28.490Z,52.20
2019-06-01T19:14:37.409Z,53.60
2019-06-01T19:18:46.374Z,54.70
2019-06-01T19:22:55.351Z,55.90
2019-06-01T19:27:04.610Z,57.00
2019-06-01T19:31:13.430Z,57.90
2019-06-01T19:35:22.406Z,58.60
2019-06-01T19:39:32.406Z,59.40
2019-06-01T19:43:41.362Z,60.20
2019-06-01T19:47:50.157Z,61.10
2019-06-01T19:51:58.927Z,61.90
2019-06-01T19:56:08.810Z,63.00
2019-06-01T20:00:18.575Z,64.10
2019-06-01T20:04:27.529Z,64.90
2019-06-01T20:08:36.391Z,65.90
2019-06-01T20:12:45.149Z,67.20
2019-06-01T20:16:53.978Z,67.70
2019-06-01T20:21:02.746Z,68.80
2019-06-01T20:25:11.762Z,69.70
2019-06-01T20:29:21.719Z,70.70
2019-06-01T20:33:30.591Z,71.80
2019-06-01T20:37:39.754Z,72.70
2019-06-01T20:41:48.796Z,73.20
2019-06-01T20:45:57.639Z,74.20
2019-06-01T20:50:09.645Z,74.60
2019-06-01T20:54:19.039Z,75.10
2019-06-01T20:58:28.325Z,76.30
2019-06-01T21:02:37.292Z,77.10
2019-06-01T21:06:46.093Z,78.20
2019-06-01T21:10:54.941Z,79.30
2019-06-01T21:15:04.169Z,79.90
2019-06-01T21:19:14.102Z,80.60
2019-06-01T21:23:23.136Z,81.50
2019-06-01T21:27:32.056Z,82.00
2019-06-01T21:31:40.827Z,82.20
2019-06-01T21:35:49.609Z,82.70
2019-06-01T21:39:58.377Z,83.30
2019-06-01T21:44:07.209Z,83.00
2019-06-01T21:48:15.982Z,83.30
2019-06-01T21:52:26.242Z,84.10
2019-06-01T21:56:35.270Z,84.20
2019-06-01T22:00:45.768Z,84.70
2019-06-01T22:04:54.554Z,84.60
2019-06-01T22:09:04.649Z,85.00
2019-06-01T22:13:18.704Z,85.30
2019-06-01T22:17:23.949Z,85.50
2019-06-01T22:21:32.745Z,85.60
2019-06-01T22:25:41.515Z,85.70
2019-06-01T22:29:50.277Z,85.90
2019-06-01T22:33:59.301Z,86.30
2019-06-01T22:38:08.147Z,86.50
2019-06-01T22:42:16.992Z,87.70
2019-06-01T22:46:26.803Z,87.80
2019-06-01T22:50:35.718Z,88.10
2019-06-01T22:54:44.837Z,89.00
2019-06-01T22:58:53.614Z,89.30
2019-06-01T23:03:02.409Z,89.50
2019-06-01T23:07:11.288Z,89.80
2019-06-01T23:11:21.271Z,90.10
2019-06-01T23:15:30.207Z,90.10
2019-06-01T23:19:38.984Z,90.10
2019-06-01T23:23:47.854Z,90.00
2019-06-01T23:27:56.651Z,90.10
2019-06-01T23:32:05.414Z,90.10
2019-06-01T23:36:14.273Z,90.10
2019-06-01T23:40:23.041Z,90.10
2019-06-01T23:44:33.985Z,90.10
2019-06-01T23:48:42.373Z,90.00
2019-06-01T23:52:51.182Z,90.30
2019-06-01T23:56:59.953Z,90.50
